createdAt,value
2018-07-27T00:01:49.139Z,4.37
2018-07-27T00:04:21.176Z,4.33
2018-07-27T00:06:51.191Z,4.23
2018-07-27T00:09:21.447Z,4.10
2018-07-27T00:11:51.496Z,3.80
2018-07-27T00:14:22.291Z,4.20
2018-07-27T00:16:51.909Z,4.33
2018-07-27T00:19:22.197Z,4.10
2018-07-27T00:21:54.886Z,4.27
2018-07-27T00:24:24.495Z,4.07
2018-07-27T00:26:54.776Z,3.73
2018-07-27T00:29:24.435Z,4.00
2018-07-27T00:31:55.094Z,4.13
2018-07-27T00:34:24.906Z,3.90
2018-07-27T00:36:55.278Z,3.40
2018-07-27T00:39:26.266Z,3.57
2018-07-27T00:41:56.354Z,3.67
2018-07-27T00:44:26.430Z,3.17
2018-07-27T00:46:56.363Z,3.47
2018-07-27T00:49:26.540Z,3.57
2018-07-27T00:51:56.731Z,3.43
2018-07-27T00:54:27.023Z,3.33
2018-07-27T00:56:56.775Z,3.50
2018-07-27T00:59:26.715Z,3.50
2018-07-27T01:01:57.039Z,3.50
2018-07-27T01:04:27.197Z,3.70
2018-07-27T01:06:56.954Z,3.73
2018-07-27T01:09:27.191Z,3.30
2018-07-27T01:11:57.092Z,3.60
2018-07-27T01:14:27.119Z,3.40
2018-07-27T01:16:57.311Z,3.10
2018-07-27T01:19:26.933Z,3.30
2018-07-27T01:21:58.116Z,3.40
2018-07-27T01:24:27.568Z,3.20
2018-07-27T01:26:58.270Z,3.40
2018-07-27T01:29:28.744Z,3.43
2018-07-27T01:31:58.796Z,3.60
2018-07-27T01:34:28.717Z,3.37
2018-07-27T01:36:58.826Z,3.67
2018-07-27T01:39:28.899Z,3.53
2018-07-27T01:41:59.634Z,3.60
2018-07-27T01:44:29.539Z,3.17
2018-07-27T01:46:59.882Z,3.27
2018-07-27T01:49:29.973Z,3.40
2018-07-27T01:51:59.691Z,3.67
2018-07-27T01:54:29.766Z,3.13
2018-07-27T01:57:01.587Z,3.40
2018-07-27T01:59:32.045Z,3.93
2018-07-27T02:02:02.285Z,3.20
2018-07-27T02:04:31.980Z,3.50
2018-07-27T02:07:01.959Z,3.70
2018-07-27T02:09:32.134Z,3.40
2018-07-27T02:12:01.954Z,3.73
2018-07-27T02:14:31.584Z,3.70
2018-07-27T02:17:01.672Z,3.43
2018-07-27T02:19:32.095Z,3.30
2018-07-27T02:22:01.827Z,3.67
2018-07-27T02:24:32.045Z,3.53
2018-07-27T02:27:01.815Z,3.63
2018-07-27T02:29:31.812Z,3.60
2018-07-27T02:32:01.789Z,3.17
2018-07-27T02:34:31.709Z,3.20
2018-07-27T02:37:01.363Z,3.20
2018-07-27T02:39:31.536Z,3.30
2018-07-27T02:42:02.584Z,3.07
2018-07-27T02:44:32.763Z,3.23
2018-07-27T02:47:02.506Z,3.30
2018-07-27T02:49:32.393Z,3.47
2018-07-27T02:52:02.437Z,3.07
2018-07-27T02:54:32.737Z,3.37
2018-07-27T02:57:02.369Z,3.20
2018-07-27T02:59:32.463Z,3.27
2018-07-27T03:02:03.072Z,3.50
2018-07-27T03:04:32.721Z,3.30
2018-07-27T03:07:02.899Z,3.10
2018-07-27T03:09:32.782Z,3.33
2018-07-27T03:12:02.470Z,3.50
2018-07-27T03:14:32.596Z,3.30
2018-07-27T03:17:02.346Z,3.67
2018-07-27T03:19:32.067Z,3.30
2018-07-27T03:22:02.001Z,3.20
2018-07-27T03:24:32.024Z,3.40
2018-07-27T03:27:02.100Z,3.70
2018-07-27T03:29:31.738Z,3.53
2018-07-27T03:32:01.589Z,3.40
2018-07-27T03:34:31.328Z,3.37
2018-07-27T03:37:01.798Z,3.53
2018-07-27T03:39:31.819Z,3.80
2018-07-27T03:42:01.492Z,3.50
2018-07-27T03:44:31.667Z,3.50
2018-07-27T03:47:01.595Z,3.33
2018-07-27T03:49:31.744Z,3.20
2018-07-27T03:52:01.538Z,3.80
2018-07-27T03:54:31.553Z,3.73
2018-07-27T03:57:01.530Z,3.90
2018-07-27T03:59:32.123Z,3.80
2018-07-27T04:02:01.828Z,3.57
2018-07-27T04:04:32.214Z,3.83
2018-07-27T04:07:01.903Z,3.70
2018-07-27T04:09:31.632Z,3.87
2018-07-27T04:12:02.798Z,3.73
2018-07-27T04:14:32.693Z,4.10
2018-07-27T04:17:02.459Z,3.80
2018-07-27T04:19:32.609Z,3.20
2018-07-27T04:22:02.363Z,3.77
2018-07-27T04:24:32.559Z,3.60
2018-07-27T04:27:02.343Z,3.70
2018-07-27T04:29:32.023Z,3.77
2018-07-27T04:32:01.473Z,3.57
2018-07-27T04:34:31.181Z,3.43
2018-07-27T04:37:01.792Z,4.60
2018-07-27T04:39:31.535Z,4.00
2018-07-27T04:42:01.635Z,4.07
2018-07-27T04:44:31.335Z,3.87
2018-07-27T04:47:01.344Z,3.67
2018-07-27T04:49:33.619Z,3.50
2018-07-27T04:52:14.557Z,3.50
2018-07-27T04:54:55.231Z,3.73
2018-07-27T04:57:38.829Z,3.73
2018-07-27T05:00:20.661Z,3.70
2018-07-27T05:03:04.084Z,3.70
2018-07-27T05:05:40.104Z,3.33
2018-07-27T05:08:19.339Z,4.00
2018-07-27T05:10:54.240Z,3.90
2018-07-27T05:13:31.043Z,3.90
2018-07-27T05:16:01.735Z,3.87
2018-07-27T05:18:34.627Z,3.73
2018-07-27T05:21:04.494Z,3.30
2018-07-27T05:24:04.497Z,4.00
2018-07-27T05:26:34.600Z,4.03
2018-07-27T05:29:04.397Z,4.00
2018-07-27T05:31:34.091Z,3.60
2018-07-27T05:34:04.783Z,3.03
2018-07-27T05:36:34.839Z,3.77
2018-07-27T05:39:07.682Z,3.70
2018-07-27T05:41:38.219Z,3.77
2018-07-27T05:44:08.407Z,3.60
2018-07-27T05:46:45.451Z,3.77
2018-07-27T05:49:23.523Z,3.40
2018-07-27T05:51:53.313Z,3.40
2018-07-27T05:54:26.127Z,3.67
2018-07-27T05:57:09.054Z,3.53
2018-07-27T05:59:40.883Z,3.20
2018-07-27T06:02:11.628Z,3.77
2018-07-27T06:04:41.377Z,3.60
2018-07-27T06:07:13.509Z,3.47
2018-07-27T06:09:43.238Z,3.90
2018-07-27T06:12:13.526Z,3.90
2018-07-27T06:14:49.214Z,3.50
2018-07-27T06:17:18.949Z,4.07
2018-07-27T06:19:49.002Z,3.53
2018-07-27T06:22:19.279Z,3.50
2018-07-27T06:24:50.465Z,4.07
2018-07-27T06:27:27.846Z,3.80
2018-07-27T06:29:57.731Z,3.87
2018-07-27T06:32:27.501Z,3.80
2018-07-27T06:34:57.384Z,3.63
2018-07-27T06:37:27.755Z,3.97
2018-07-27T06:39:59.996Z,3.90
2018-07-27T06:42:31.811Z,3.73
2018-07-27T06:45:01.679Z,4.13
2018-07-27T06:47:31.200Z,3.77
2018-07-27T06:50:00.714Z,3.87
2018-07-27T06:52:31.306Z,3.60
2018-07-27T06:55:01.383Z,3.93
2018-07-27T06:57:31.092Z,3.60
2018-07-27T07:00:00.744Z,3.60
2018-07-27T07:02:30.226Z,4.50
2018-07-27T07:05:00.958Z,4.00
2018-07-27T07:07:32.350Z,5.20
2018-07-27T07:10:03.490Z,4.40
2018-07-27T07:12:34.965Z,4.57
2018-07-27T07:15:08.364Z,4.17
2018-07-27T07:17:40.604Z,4.30
2018-07-27T07:20:10.649Z,4.63
2018-07-27T07:22:42.081Z,3.77
2018-07-27T07:25:12.105Z,4.57
2018-07-27T07:27:43.192Z,3.93
2018-07-27T07:30:12.967Z,4.23
2018-07-27T07:32:43.205Z,3.60
2018-07-27T07:35:13.331Z,4.73
2018-07-27T07:37:43.575Z,4.13
2018-07-27T07:40:13.535Z,4.27
2018-07-27T07:42:44.760Z,3.43
2018-07-27T07:45:16.400Z,3.87
2018-07-27T07:47:48.299Z,3.80
2018-07-27T07:50:18.995Z,4.30
2018-07-27T07:52:50.738Z,3.93
2018-07-27T07:55:19.820Z,3.73
2018-07-27T07:57:52.405Z,3.93
2018-07-27T08:00:25.491Z,3.70
2018-07-27T08:02:57.553Z,3.63
2018-07-27T08:05:28.841Z,4.70
2018-07-27T08:08:02.301Z,4.50
2018-07-27T08:10:36.332Z,3.70
2018-07-27T08:13:07.683Z,3.87
2018-07-27T08:15:40.184Z,3.87
2018-07-27T08:18:17.148Z,3.80
2018-07-27T08:20:47.368Z,3.23
2018-07-27T08:23:19.243Z,4.23
2018-07-27T08:27:01.547Z,3.83
2018-07-27T08:29:39.806Z,3.70
2018-07-27T08:32:11.303Z,3.90
2018-07-27T08:34:42.827Z,3.93
2018-07-27T08:37:13.850Z,4.10
2018-07-27T08:39:46.748Z,3.73
2018-07-27T08:42:18.080Z,4.40
2018-07-27T08:44:50.200Z,3.77
2018-07-27T08:47:20.339Z,4.00
2018-07-27T08:49:55.808Z,3.93
2018-07-27T08:52:27.209Z,4.20
2018-07-27T08:54:57.621Z,3.90
2018-07-27T08:57:34.972Z,4.13
2018-07-27T09:00:05.670Z,3.70
2018-07-27T09:02:35.764Z,3.67
2018-07-27T09:05:09.400Z,3.90
2018-07-27T09:07:39.675Z,3.97
2018-07-27T09:10:10.042Z,4.03
2018-07-27T09:12:40.031Z,3.50
2018-07-27T09:15:10.544Z,4.63
2018-07-27T09:17:40.491Z,3.97
2018-07-27T09:20:12.817Z,4.17
2018-07-27T09:22:43.566Z,4.07
2018-07-27T09:25:13.974Z,4.20
2018-07-27T09:27:44.147Z,3.87
2018-07-27T09:30:14.467Z,4.00
2018-07-27T09:33:04.329Z,4.07
2018-07-27T09:35:35.139Z,3.80
2018-07-27T09:38:07.461Z,3.80
2018-07-27T09:40:38.025Z,4.20
2018-07-27T09:43:08.608Z,5.73
2018-07-27T09:45:42.045Z,4.57
2018-07-27T09:48:13.226Z,3.97
2018-07-27T09:50:46.215Z,3.90
2018-07-27T09:53:19.314Z,4.13
2018-07-27T09:55:50.028Z,3.80
2018-07-27T09:58:19.828Z,4.20
2018-07-27T10:00:55.640Z,4.40
2018-07-27T10:03:28.503Z,3.87
2018-07-27T10:06:02.641Z,4.27
2018-07-27T10:08:34.175Z,4.20
2018-07-27T10:11:05.262Z,4.20
2018-07-27T10:13:36.353Z,4.13
2018-07-27T10:16:07.127Z,3.97
2018-07-27T10:18:38.511Z,4.43
2018-07-27T10:21:09.981Z,4.33
2018-07-27T10:23:43.649Z,4.60
2018-07-27T10:26:15.097Z,4.70
2018-07-27T10:28:47.352Z,4.70
2018-07-27T10:31:18.356Z,4.20
2018-07-27T10:33:50.230Z,3.83
2018-07-27T10:36:23.816Z,4.43
2018-07-27T10:39:11.920Z,4.37
2018-07-27T10:41:42.516Z,4.13
2018-07-27T10:44:13.063Z,4.13
2018-07-27T10:46:44.626Z,4.77
2018-07-27T10:49:15.200Z,4.50
2018-07-27T10:51:45.505Z,4.50
2018-07-27T10:54:16.966Z,3.87
2018-07-27T10:56:47.176Z,4.50
2018-07-27T10:59:17.162Z,4.27
2018-07-27T11:01:47.739Z,3.93
2018-07-27T11:04:19.393Z,4.10
2018-07-27T11:06:50.218Z,4.30
2018-07-27T11:09:21.370Z,4.07
2018-07-27T11:11:55.364Z,4.20
2018-07-27T11:14:25.773Z,4.30
2018-07-27T11:16:56.019Z,3.97
2018-07-27T11:19:25.735Z,4.10
2018-07-27T11:21:57.115Z,3.33
2018-07-27T11:24:30.261Z,3.93
2018-07-27T11:27:01.696Z,4.07
2018-07-27T11:29:31.650Z,4.03
2018-07-27T11:32:02.339Z,4.07
2018-07-27T11:34:34.285Z,4.90
2018-07-27T11:37:04.644Z,4.10
2018-07-27T11:39:34.245Z,4.13
2018-07-27T11:42:05.253Z,4.03
2018-07-27T11:44:35.240Z,4.47
2018-07-27T11:47:05.194Z,3.77
2018-07-27T11:49:35.789Z,4.37
2018-07-27T11:52:07.299Z,4.00
2018-07-27T11:54:38.063Z,4.07
2018-07-27T11:57:08.370Z,4.00
2018-07-27T11:59:38.144Z,3.93
2018-07-27T12:02:08.256Z,3.67
2018-07-27T12:04:38.312Z,3.73
2018-07-27T12:07:08.583Z,3.63
2018-07-27T12:09:39.659Z,3.90
2018-07-27T12:12:10.061Z,4.10
2018-07-27T12:14:40.277Z,4.20
2018-07-27T12:17:10.262Z,3.70
2018-07-27T12:19:41.517Z,3.80
2018-07-27T12:22:11.657Z,3.03
2018-07-27T12:24:41.380Z,3.30
2018-07-27T12:27:11.728Z,3.63
2018-07-27T12:29:41.702Z,3.83
2018-07-27T12:32:11.921Z,4.27
2018-07-27T12:34:42.504Z,3.73
2018-07-27T12:37:12.854Z,4.10
2018-07-27T12:39:43.858Z,4.10
2018-07-27T12:42:13.639Z,4.30
2018-07-27T12:44:43.419Z,4.00
2018-07-27T12:47:13.267Z,3.90
2018-07-27T12:49:43.050Z,3.77
2018-07-27T12:52:13.958Z,4.00
2018-07-27T12:54:44.651Z,3.93
2018-07-27T12:57:14.748Z,3.77
2018-07-27T12:59:44.986Z,3.67
2018-07-27T13:02:15.406Z,4.10
2018-07-27T13:04:45.311Z,3.70
2018-07-27T13:07:20.515Z,3.45
2018-07-27T13:09:56.695Z,3.73
2018-07-27T13:12:27.206Z,3.90
2018-07-27T13:17:27.481Z,3.80
2018-07-27T13:20:00.359Z,3.67
2018-07-27T13:22:31.942Z,4.07
2018-07-27T13:25:01.869Z,4.17
2018-07-27T13:27:34.792Z,3.47
2018-07-27T13:30:06.127Z,4.13
2018-07-27T13:32:36.700Z,3.50
2018-07-27T13:37:39.219Z,3.80
2018-07-27T13:40:10.735Z,3.73
2018-07-27T13:42:41.663Z,3.58
2018-07-27T13:45:12.250Z,3.50
2018-07-27T13:47:44.213Z,3.50
2018-07-27T13:50:14.421Z,3.72
2018-07-27T13:52:44.436Z,3.30
2018-07-27T13:55:15.021Z,3.03
2018-07-27T13:57:44.720Z,3.73
2018-07-27T14:00:16.193Z,3.20
2018-07-27T14:02:48.337Z,3.10
2018-07-27T14:05:20.118Z,3.73
2018-07-27T14:07:51.268Z,3.50
2018-07-27T14:10:23.266Z,3.58
2018-07-27T14:12:54.203Z,3.80
2018-07-27T14:15:26.870Z,3.50
2018-07-27T14:17:58.416Z,3.87
2018-07-27T14:20:30.437Z,4.00
2018-07-27T14:23:00.804Z,4.03
2018-07-27T14:25:31.581Z,3.67
2018-07-27T14:28:01.580Z,3.90
2018-07-27T14:30:31.624Z,3.30
2018-07-27T14:33:05.041Z,3.98
2018-07-27T14:35:36.648Z,3.40
2018-07-27T14:38:07.268Z,3.65
2018-07-27T14:40:43.507Z,3.85
2018-07-27T14:43:18.830Z,3.90
2018-07-27T14:45:48.770Z,3.77
2018-07-27T14:48:22.756Z,3.75
2018-07-27T14:50:54.131Z,3.50
2018-07-27T14:53:24.716Z,3.80
2018-07-27T14:55:55.103Z,3.92
2018-07-27T14:58:25.140Z,3.53
2018-07-27T15:00:55.324Z,3.63
2018-07-27T15:03:31.825Z,3.70
2018-07-27T15:06:01.983Z,3.37
2018-07-27T15:08:32.540Z,3.53
2018-07-27T15:11:03.748Z,3.57
2018-07-27T15:13:36.131Z,3.47
2018-07-27T15:16:06.851Z,3.23
2018-07-27T15:18:38.108Z,4.03
2018-07-27T15:21:09.428Z,3.10
2018-07-27T15:23:42.100Z,3.17
2018-07-27T15:26:14.376Z,3.30
2018-07-27T15:28:44.548Z,3.15
2018-07-27T15:31:14.779Z,3.27
2018-07-27T15:36:23.839Z,3.57
2018-07-27T15:39:00.308Z,3.40
2018-07-27T15:41:31.800Z,3.20
2018-07-27T15:44:04.483Z,3.40
2018-07-27T15:46:37.306Z,3.80
2018-07-27T15:49:09.095Z,3.77
2018-07-27T15:51:41.082Z,3.25
2018-07-27T15:54:12.922Z,3.35
2018-07-27T15:56:45.720Z,3.67
2018-07-27T15:59:17.396Z,3.40
2018-07-27T16:01:47.800Z,3.60
2018-07-27T16:04:18.109Z,3.40
2018-07-27T16:06:52.739Z,3.20
2018-07-27T16:09:25.355Z,3.50
2018-07-27T16:11:55.690Z,3.10
2018-07-27T16:14:26.681Z,3.23
2018-07-27T16:16:58.570Z,3.42
2018-07-27T16:19:29.955Z,3.20
2018-07-27T16:22:02.000Z,3.07
2018-07-27T16:24:32.472Z,3.23
2018-07-27T16:27:06.638Z,3.30
2018-07-27T16:29:39.460Z,3.72
2018-07-27T16:32:09.767Z,3.23
2018-07-27T16:34:41.276Z,3.27
2018-07-27T16:37:12.695Z,3.60
2018-07-27T16:39:43.145Z,3.47
2018-07-27T16:42:13.142Z,3.97
2018-07-27T16:44:44.085Z,3.80
2018-07-27T16:47:13.829Z,3.80
2018-07-27T16:49:44.042Z,3.50
2018-07-27T16:52:15.239Z,3.40
2018-07-27T16:54:46.072Z,3.53
2018-07-27T16:57:15.912Z,3.70
2018-07-27T16:59:46.430Z,3.70
2018-07-27T17:02:17.181Z,2.97
2018-07-27T17:04:48.662Z,3.17
2018-07-27T17:07:19.609Z,3.03
2018-07-27T17:09:49.507Z,3.03
2018-07-27T17:12:19.767Z,3.40
2018-07-27T17:14:53.124Z,3.73
2018-07-27T17:17:22.955Z,4.10
2018-07-27T17:19:56.396Z,3.53
2018-07-27T17:22:28.162Z,3.63
2018-07-27T17:25:00.227Z,3.90
2018-07-27T17:27:30.798Z,3.60
2018-07-27T17:30:01.075Z,3.33
2018-07-27T17:32:31.275Z,3.83
2018-07-27T17:35:02.819Z,3.70
2018-07-27T17:37:32.918Z,3.40
2018-07-27T17:40:05.768Z,3.83
2018-07-27T17:42:39.377Z,4.33
2018-07-27T17:45:11.041Z,3.87
2018-07-27T17:47:40.823Z,4.00
2018-07-27T17:50:11.840Z,4.20
2018-07-27T17:52:42.452Z,4.37
2018-07-27T17:55:15.774Z,4.87
2018-07-27T17:57:46.556Z,4.73
2018-07-27T18:00:19.677Z,4.03
2018-07-27T18:02:50.095Z,4.10
2018-07-27T18:05:19.988Z,4.80
2018-07-27T18:07:52.030Z,4.10
2018-07-27T18:10:24.371Z,4.30
2018-07-27T18:12:55.032Z,4.50
2018-07-27T18:15:26.105Z,4.70
2018-07-27T18:17:59.295Z,4.00
2018-07-27T18:20:29.311Z,4.47
2018-07-27T18:22:59.196Z,4.40
2018-07-27T18:25:30.666Z,4.70
2018-07-27T18:28:01.186Z,3.93
2018-07-27T18:30:31.319Z,4.03
2018-07-27T18:33:03.130Z,4.00
2018-07-27T18:35:32.857Z,4.20
2018-07-27T18:38:04.946Z,3.73
2018-07-27T18:40:35.582Z,3.80
2018-07-27T18:43:08.327Z,4.07
2018-07-27T18:45:43.511Z,3.80
2018-07-27T18:48:14.819Z,4.23
2018-07-27T18:50:46.277Z,3.70
2018-07-27T18:53:16.280Z,4.07
2018-07-27T18:55:46.026Z,4.33
2018-07-27T18:58:20.012Z,4.20
2018-07-27T19:00:50.480Z,4.10
2018-07-27T19:03:20.599Z,4.37
2018-07-27T19:05:51.785Z,4.37
2018-07-27T19:08:22.451Z,4.03
2018-07-27T19:10:53.404Z,4.33
2018-07-27T19:13:24.622Z,4.20
2018-07-27T19:15:54.705Z,4.30
2018-07-27T19:18:24.920Z,4.07
2018-07-27T19:20:58.100Z,4.20
2018-07-27T19:23:28.408Z,4.83
2018-07-27T19:25:58.927Z,4.50
2018-07-27T19:28:29.420Z,5.17
2018-07-27T19:30:59.552Z,4.80
2018-07-27T19:33:32.557Z,5.57
2018-07-27T19:36:02.878Z,5.40
2018-07-27T19:38:32.795Z,5.23
2018-07-27T19:41:04.734Z,5.27
2018-07-27T19:43:36.070Z,6.83
2018-07-27T19:46:08.201Z,6.77
2018-07-27T19:48:39.093Z,8.17
2018-07-27T19:51:09.431Z,7.33
2018-07-27T19:53:39.395Z,6.90
2018-07-27T19:56:09.180Z,5.63
2018-07-27T19:58:38.848Z,5.93
2018-07-27T20:01:08.878Z,5.23
2018-07-27T20:03:38.594Z,5.03
2018-07-27T20:06:08.530Z,5.10
2018-07-27T20:08:40.041Z,5.27
2018-07-27T20:11:10.696Z,4.93
2018-07-27T20:13:40.934Z,4.70
2018-07-27T20:16:12.024Z,4.93
2018-07-27T20:18:41.913Z,5.13
2018-07-27T20:21:13.155Z,5.90
2018-07-27T20:23:43.554Z,5.27
2018-07-27T20:26:14.735Z,5.17
2018-07-27T20:28:46.376Z,4.93
2018-07-27T20:31:19.798Z,4.80
2018-07-27T20:33:53.723Z,5.30
2018-07-27T20:36:25.065Z,5.00
2018-07-27T20:38:55.783Z,5.37
2018-07-27T20:41:26.128Z,5.40
2018-07-27T20:43:57.124Z,5.33
2018-07-27T20:46:27.830Z,5.37
2018-07-27T20:48:58.777Z,4.93
2018-07-27T20:51:29.901Z,5.47
2018-07-27T20:54:00.577Z,4.50
2018-07-27T20:56:32.306Z,5.23
2018-07-27T20:59:06.485Z,5.33
2018-07-27T21:01:44.562Z,5.03
2018-07-27T21:04:15.554Z,5.53
2018-07-27T21:06:47.060Z,5.60
2018-07-27T21:09:18.634Z,5.03
2018-07-27T21:11:49.187Z,5.40
2018-07-27T21:14:19.130Z,5.40
2018-07-27T21:16:51.347Z,5.20
2018-07-27T21:19:21.693Z,5.97
2018-07-27T21:21:52.068Z,5.17
2018-07-27T21:24:22.455Z,4.80
2018-07-27T21:26:52.532Z,5.50
2018-07-27T21:29:26.283Z,5.63
2018-07-27T21:32:01.817Z,5.13
2018-07-27T21:34:31.501Z,5.37
2018-07-27T21:37:03.245Z,5.70
2018-07-27T21:39:33.778Z,5.57
2018-07-27T21:42:03.850Z,5.23
2018-07-27T21:44:34.077Z,5.27
2018-07-27T21:47:05.097Z,5.07
2018-07-27T21:49:36.199Z,5.53
2018-07-27T21:52:10.576Z,5.00
2018-07-27T21:54:41.076Z,5.70
2018-07-27T21:57:13.946Z,5.47
2018-07-27T21:59:44.748Z,5.20
2018-07-27T22:02:15.627Z,5.63
2018-07-27T22:04:48.142Z,5.83
2018-07-27T22:07:24.732Z,5.43
2018-07-27T22:09:57.779Z,5.40
2018-07-27T22:12:28.681Z,5.77
2018-07-27T22:15:00.231Z,5.40
2018-07-27T22:17:34.436Z,5.73
2018-07-27T22:20:05.144Z,5.73
2018-07-27T22:22:36.963Z,5.60
2018-07-27T22:25:09.595Z,5.73
2018-07-27T22:27:39.414Z,5.57
2018-07-27T22:30:16.446Z,5.57
2018-07-27T22:32:46.807Z,6.23
2018-07-27T22:35:17.095Z,5.93
2018-07-27T22:37:47.775Z,5.97
2018-07-27T22:40:20.326Z,5.77
2018-07-27T22:45:29.507Z,5.90
2018-07-27T22:48:00.704Z,5.37
2018-07-27T22:50:31.707Z,5.80
2018-07-27T22:53:02.889Z,5.27
2018-07-27T22:55:33.199Z,6.33
2018-07-27T22:58:04.992Z,6.40
2018-07-27T23:00:36.668Z,5.87
2018-07-27T23:03:07.196Z,5.97
2018-07-27T23:05:38.243Z,5.90
2018-07-27T23:08:09.096Z,5.73
2018-07-27T23:10:40.218Z,5.27
2018-07-27T23:13:10.205Z,6.20
2018-07-27T23:15:42.202Z,5.67
2018-07-27T23:18:14.779Z,5.90
2018-07-27T23:20:46.818Z,6.23
2018-07-27T23:23:17.115Z,5.77
2018-07-27T23:25:47.107Z,5.60
2018-07-27T23:28:17.608Z,6.00
2018-07-27T23:30:48.185Z,6.00
2018-07-27T23:33:18.206Z,5.87
2018-07-27T23:35:49.659Z,6.07
2018-07-27T23:38:20.703Z,6.17
2018-07-27T23:40:51.211Z,6.20
2018-07-27T23:43:21.594Z,5.73
2018-07-27T23:45:52.189Z,6.00
2018-07-27T23:48:22.236Z,5.37
2018-07-27T23:50:52.186Z,5.90
2018-07-27T23:53:22.503Z,5.30
2018-07-27T23:55:52.669Z,5.67
2018-07-27T23:58:23.680Z,5.50
